Time;durP1;ratioP1;P1;durP2;ratioP2;P2;SDS_P1;SDS_P2;PMS_P1;PMS_P2;Temp;Humidity;BMP_temperature;BMP_pressure;BME280_temperature;BME280_humidity;BME280_pressure;Samples;Min_cycle;Max_cycle;Signal;HPM_P1;HPM_P2
2023/08/17 00:00:08;;;;;;;3.40;2.97;;;;;;;;;;5059900;28;20982;-56
2023/08/17 00:02:36;;;;;;;3.20;2.47;;;;;;;;;;5071837;28;20967;-54
2023/08/17 00:05:04;;;;;;;4.00;2.90;;;;;;;;;;5072336;28;20494;-55
2023/08/17 00:07:32;;;;;;;3.53;2.80;;;;;;;;;;5072529;28;20800;-54
2023/08/17 00:09:59;;;;;;;5.33;2.83;;;;;;;;;;5071910;28;20837;-55
2023/08/17 00:12:26;;;;;;;3.30;2.10;;;;;;;;;;5071620;28;20468;-55
2023/08/17 00:14:54;;;;;;;6.90;3.77;;;;;;;;;;5071802;28;20448;-57
2023/08/17 00:17:21;;;;;;;5.53;3.37;;;;;;;;;;5072106;28;20452;-56
2023/08/17 00:19:50;;;;;;;3.63;2.53;;;;;;;;;;5071885;28;20480;-54
2023/08/17 00:22:18;;;;;;;4.43;2.80;;;;;;;;;;5071139;28;21006;-54
2023/08/17 00:24:45;;;;;;;3.10;2.67;;;;;;;;;;5071393;28;20539;-55
2023/08/17 00:27:12;;;;;;;6.50;3.17;;;;;;;;;;5060144;28;20491;-54
2023/08/17 00:29:39;;;;;;;3.60;2.67;;;;;;;;;;5052200;28;20469;-54
2023/08/17 00:32:07;;;;;;;5.23;3.07;;;;;;;;;;5070847;28;20473;-55
2023/08/17 00:34:34;;;;;;;3.50;2.33;;;;;;;;;;5071162;28;20448;-55
2023/08/17 00:37:03;;;;;;;3.00;2.60;;;;;;;;;;5071862;28;20445;-55
2023/08/17 00:39:30;;;;;;;4.10;2.43;;;;;;;;;;5070623;28;20868;-55
2023/08/17 00:41:57;;;;;;;3.00;2.60;;;;;;;;;;5069599;28;20491;-56
2023/08/17 00:44:25;;;;;;;3.63;2.77;;;;;;;;;;5051837;28;20437;-55
2023/08/17 00:46:52;;;;;;;3.80;3.00;;;;;;;;;;5066469;28;20532;-54
2023/08/17 00:49:19;;;;;;;5.40;2.97;;;;;;;;;;5070522;28;20445;-55
2023/08/17 00:51:47;;;;;;;2.93;2.50;;;;;;;;;;5071084;28;20747;-54
2023/08/17 00:54:17;;;;;;;4.90;2.77;;;;;;;;;;5071266;28;20466;-56
2023/08/17 00:56:44;;;;;;;2.97;2.50;;;;;;;;;;5071216;28;20528;-54
2023/08/17 00:59:11;;;;;;;4.40;3.23;;;;;;;;;;5071094;28;20477;-55
2023/08/17 01:01:38;;;;;;;3.37;2.90;;;;;;;;;;5070022;28;20519;-54
2023/08/17 01:04:06;;;;;;;3.97;3.03;;;;;;;;;;5070454;28;20480;-55
2023/08/17 01:06:33;;;;;;;3.97;2.70;;;;;;;;;;5070771;28;20476;-55
2023/08/17 01:09:00;;;;;;;3.70;2.90;;;;;;;;;;5071313;28;20537;-54
2023/08/17 01:11:31;;;;;;;3.47;2.90;;;;;;;;;;5070637;28;20535;-54
2023/08/17 01:14:03;;;;;;;4.10;2.97;;;;;;;;;;5055993;28;20465;-54
2023/08/17 01:16:35;;;;;;;4.83;3.13;;;;;;;;;;5050972;28;20453;-54
2023/08/17 01:19:02;;;;;;;3.43;2.40;;;;;;;;;;5054479;28;20444;-54
2023/08/17 01:21:35;;;;;;;3.30;2.40;;;;;;;;;;5070364;28;20974;-55
2023/08/17 01:24:04;;;;;;;3.63;3.10;;;;;;;;;;5070376;28;20445;-56
2023/08/17 01:26:32;;;;;;;4.43;2.70;;;;;;;;;;5070434;28;20472;-56
2023/08/17 01:28:59;;;;;;;6.87;3.20;;;;;;;;;;5070505;28;20577;-55
2023/08/17 01:31:31;;;;;;;3.93;2.77;;;;;;;;;;5070128;28;20511;-54
2023/08/17 01:34:00;;;;;;;5.93;2.73;;;;;;;;;;5070162;28;20912;-55
2023/08/17 01:36:28;;;;;;;4.20;3.07;;;;;;;;;;5070171;28;20449;-54
2023/08/17 01:38:56;;;;;;;5.60;3.10;;;;;;;;;;5069230;28;20471;-54
2023/08/17 01:41:26;;;;;;;3.60;2.80;;;;;;;;;;5070388;28;20525;-55
2023/08/17 01:43:53;;;;;;;3.53;2.77;;;;;;;;;;5056630;28;20524;-55
2023/08/17 01:46:21;;;;;;;4.37;2.90;;;;;;;;;;5050962;28;20462;-54
2023/08/17 01:48:48;;;;;;;4.47;3.30;;;;;;;;;;5058614;28;21023;-55
2023/08/17 01:51:18;;;;;;;7.10;3.73;;;;;;;;;;5069863;28;20492;-55
2023/08/17 01:53:45;;;;;;;4.53;2.50;;;;;;;;;;5070178;28;20447;-54
2023/08/17 01:56:12;;;;;;;5.63;2.77;;;;;;;;;;5070339;28;20472;-55
2023/08/17 01:58:41;;;;;;;4.83;3.23;;;;;;;;;;5070203;28;20472;-56
2023/08/17 02:01:08;;;;;;;3.73;3.03;;;;;;;;;;5069818;28;20519;-56
2023/08/17 02:03:36;;;;;;;4.13;2.93;;;;;;;;;;5069910;28;20527;-55
2023/08/17 02:06:03;;;;;;;5.00;3.43;;;;;;;;;;5070051;28;20441;-55
2023/08/17 02:08:31;;;;;;;3.60;2.53;;;;;;;;;;5069749;28;20509;-55
2023/08/17 02:10:58;;;;;;;5.07;3.37;;;;;;;;;;5069693;28;20496;-54
2023/08/17 02:13:27;;;;;;;4.87;3.17;;;;;;;;;;5063324;28;20484;-55
2023/08/17 02:15:55;;;;;;;3.60;3.00;;;;;;;;;;5052317;28;20495;-54
2023/08/17 02:18:23;;;;;;;4.73;3.37;;;;;;;;;;5069743;28;20445;-55
2023/08/17 02:20:50;;;;;;;4.40;3.10;;;;;;;;;;5070295;28;20571;-56
2023/08/17 02:23:17;;;;;;;3.93;3.07;;;;;;;;;;5069949;28;20445;-56
2023/08/17 02:25:44;;;;;;;4.53;2.40;;;;;;;;;;5069818;28;20475;-54
2023/08/17 02:28:12;;;;;;;3.77;3.10;;;;;;;;;;5070052;28;20460;-56
2023/08/17 02:30:39;;;;;;;3.57;3.00;;;;;;;;;;5071685;22;20920;-57
2023/08/17 02:33:08;;;;;;;4.00;2.97;;;;;;;;;;5030088;28;20446;-59
2023/08/17 02:35:35;;;;;;;5.10;2.90;;;;;;;;;;5030437;28;20641;-58
2023/08/17 02:38:02;;;;;;;4.70;2.80;;;;;;;;;;5029669;28;20477;-57
2023/08/17 02:40:29;;;;;;;3.63;2.90;;;;;;;;;;5029030;28;20565;-56
2023/08/17 02:42:57;;;;;;;3.90;2.67;;;;;;;;;;5029574;28;20512;-57
2023/08/17 02:45:24;;;;;;;4.00;3.00;;;;;;;;;;5015722;28;20906;-57
2023/08/17 02:47:51;;;;;;;3.90;2.97;;;;;;;;;;5010193;28;20526;-57
2023/08/17 02:50:20;;;;;;;3.63;2.80;;;;;;;;;;5029230;28;20921;-56
2023/08/17 02:52:47;;;;;;;3.60;2.90;;;;;;;;;;5029814;28;20988;-57
2023/08/17 02:55:14;;;;;;;4.13;3.10;;;;;;;;;;5029875;28;20478;-57
2023/08/17 02:57:41;;;;;;;3.47;2.83;;;;;;;;;;5029493;28;20521;-56
2023/08/17 03:00:09;;;;;;;3.40;2.90;;;;;;;;;;5029650;28;20560;-57
2023/08/17 03:02:37;;;;;;;4.40;3.30;;;;;;;;;;5029621;28;20442;-57
2023/08/17 03:05:04;;;;;;;3.90;3.07;;;;;;;;;;5030152;28;20891;-56
2023/08/17 03:07:33;;;;;;;3.20;2.80;;;;;;;;;;5030082;28;20466;-57
2023/08/17 03:10:00;;;;;;;3.57;2.63;;;;;;;;;;5029420;28;20535;-57
2023/08/17 03:12:27;;;;;;;4.07;3.07;;;;;;;;;;5029350;28;20477;-56
2023/08/17 03:14:55;;;;;;;4.60;3.40;;;;;;;;;;5029658;28;20991;-57
2023/08/17 03:17:22;;;;;;;4.03;3.27;;;;;;;;;;5029927;28;20478;-59
2023/08/17 03:19:49;;;;;;;4.07;3.30;;;;;;;;;;5029755;28;20552;-57
2023/08/17 03:22:16;;;;;;;6.70;3.10;;;;;;;;;;5029135;28;20914;-58
2023/08/17 03:24:45;;;;;;;3.97;2.73;;;;;;;;;;5031115;28;20446;-58
2023/08/17 03:27:12;;;;;;;4.00;3.00;;;;;;;;;;5033556;28;20965;-58
2023/08/17 03:29:40;;;;;;;4.67;2.97;;;;;;;;;;5033099;28;20774;-57
2023/08/17 03:32:07;;;;;;;4.40;3.43;;;;;;;;;;5032693;28;20494;-58
2023/08/17 03:34:34;;;;;;;4.23;3.53;;;;;;;;;;5033295;28;20517;-56
2023/08/17 03:37:02;;;;;;;4.40;3.30;;;;;;;;;;5033556;28;20470;-56
2023/08/17 03:39:29;;;;;;;4.03;3.10;;;;;;;;;;5031455;28;20482;-57
2023/08/17 03:41:58;;;;;;;3.90;3.17;;;;;;;;;;5032850;28;20568;-58
2023/08/17 03:44:25;;;;;;;4.93;2.70;;;;;;;;;;5032999;28;20505;-57
2023/08/17 03:46:52;;;;;;;3.67;2.87;;;;;;;;;;5032728;28;20521;-55
2023/08/17 03:49:19;;;;;;;7.37;4.63;;;;;;;;;;5032014;28;20474;-56
2023/08/17 03:51:47;;;;;;;5.20;3.30;;;;;;;;;;5032520;28;20700;-57
2023/08/17 03:54:14;;;;;;;4.93;3.20;;;;;;;;;;5032463;28;20504;-56
2023/08/17 03:56:41;;;;;;;3.13;2.60;;;;;;;;;;5032845;28;20469;-58
2023/08/17 03:59:10;;;;;;;4.50;3.50;;;;;;;;;;5032510;28;20807;-57
2023/08/17 04:01:37;;;;;;;5.40;3.30;;;;;;;;;;5032663;28;20545;-58
2023/08/17 04:04:04;;;;;;;4.33;2.80;;;;;;;;;;5032283;28;20949;-56
2023/08/17 04:06:32;;;;;;;4.10;3.00;;;;;;;;;;5032736;28;20829;-57
2023/08/17 04:09:00;;;;;;;4.60;2.93;;;;;;;;;;5031944;28;20457;-57
2023/08/17 04:11:27;;;;;;;3.30;2.70;;;;;;;;;;5032548;28;20488;-57
2023/08/17 04:13:55;;;;;;;3.13;2.80;;;;;;;;;;5032402;28;20995;-57
2023/08/17 04:16:23;;;;;;;3.70;2.90;;;;;;;;;;5032554;28;20541;-57
2023/08/17 04:18:50;;;;;;;4.00;3.27;;;;;;;;;;5032571;28;20533;-57
2023/08/17 04:21:18;;;;;;;4.97;2.90;;;;;;;;;;5031471;28;20561;-57
2023/08/17 04:23:45;;;;;;;4.30;2.97;;;;;;;;;;5032205;28;20533;-58
2023/08/17 04:26:12;;;;;;;7.10;3.27;;;;;;;;;;5031804;28;20475;-59
2023/08/17 04:28:39;;;;;;;4.20;3.30;;;;;;;;;;5032352;28;20438;-57
2023/08/17 04:31:07;;;;;;;3.93;2.63;;;;;;;;;;5031678;28;20494;-57
2023/08/17 04:33:35;;;;;;;3.37;2.80;;;;;;;;;;5032457;28;20504;-57
2023/08/17 04:36:02;;;;;;;3.37;2.83;;;;;;;;;;5031991;28;20858;-55
2023/08/17 04:38:30;;;;;;;5.13;3.30;;;;;;;;;;5031066;28;20533;-58
2023/08/17 04:40:57;;;;;;;6.90;3.13;;;;;;;;;;5011580;28;20482;-56
2023/08/17 04:43:24;;;;;;;5.50;3.67;;;;;;;;;;5012246;28;20514;-55
2023/08/17 04:45:51;;;;;;;4.70;3.23;;;;;;;;;;5014650;28;20828;-57
2023/08/17 04:48:19;;;;;;;4.03;3.30;;;;;;;;;;5030811;28;20519;-58
2023/08/17 04:50:47;;;;;;;3.23;2.70;;;;;;;;;;5030885;28;20961;-57
2023/08/17 04:53:15;;;;;;;3.80;2.83;;;;;;;;;;5031185;28;20446;-55
2023/08/17 04:55:42;;;;;;;3.73;3.33;;;;;;;;;;5031183;28;20529;-57
2023/08/17 04:58:09;;;;;;;4.13;2.93;;;;;;;;;;5030914;28;20469;-57
2023/08/17 05:00:36;;;;;;;5.23;3.50;;;;;;;;;;5030269;28;20521;-56
2023/08/17 05:03:04;;;;;;;4.93;2.97;;;;;;;;;;5031431;28;20442;-56
2023/08/17 05:05:31;;;;;;;8.10;3.13;;;;;;;;;;5030855;28;20492;-56
2023/08/17 05:08:00;;;;;;;3.63;2.73;;;;;;;;;;5030677;28;20537;-58
2023/08/17 05:10:27;;;;;;;4.50;3.57;;;;;;;;;;5019568;28;20911;-56
2023/08/17 05:12:54;;;;;;;5.20;3.50;;;;;;;;;;5030783;28;20521;-59
2023/08/17 05:15:22;;;;;;;3.87;2.93;;;;;;;;;;5030627;28;20892;-57
2023/08/17 05:17:49;;;;;;;4.17;3.40;;;;;;;;;;5030965;28;20477;-59
2023/08/17 05:20:16;;;;;;;5.33;3.03;;;;;;;;;;5030258;28;20558;-58
2023/08/17 05:22:43;;;;;;;4.53;3.03;;;;;;;;;;5029963;28;20913;-58
2023/08/17 05:25:12;;;;;;;5.47;4.10;;;;;;;;;;5030434;28;20929;-55
2023/08/17 05:27:39;;;;;;;5.03;3.63;;;;;;;;;;5027418;28;20482;-58
2023/08/17 05:30:07;;;;;;;4.00;3.53;;;;;;;;;;5029662;28;20549;-57
2023/08/17 05:32:34;;;;;;;5.07;3.63;;;;;;;;;;5028830;28;20488;-58
2023/08/17 05:35:01;;;;;;;4.70;3.17;;;;;;;;;;5030191;28;20537;-58
2023/08/17 05:37:29;;;;;;;4.60;3.40;;;;;;;;;;5030263;28;20503;-56
2023/08/17 05:39:56;;;;;;;5.43;3.80;;;;;;;;;;5029785;28;20787;-58
2023/08/17 05:42:25;;;;;;;4.30;3.00;;;;;;;;;;5050327;28;20504;-57
2023/08/17 05:44:52;;;;;;;7.13;3.33;;;;;;;;;;5038516;28;20945;-58
2023/08/17 05:47:19;;;;;;;4.10;3.40;;;;;;;;;;5028342;28;20920;-56
2023/08/17 05:49:46;;;;;;;4.03;2.80;;;;;;;;;;5029887;28;20466;-57
2023/08/17 05:52:14;;;;;;;8.70;3.30;;;;;;;;;;5028221;28;20518;-58
2023/08/17 05:54:42;;;;;;;3.70;3.03;;;;;;;;;;5028409;28;20548;-57
2023/08/17 05:57:10;;;;;;;4.03;3.30;;;;;;;;;;5029001;28;20445;-57
2023/08/17 05:59:39;;;;;;;4.80;3.17;;;;;;;;;;5028885;28;20564;-57
2023/08/17 06:02:06;;;;;;;4.33;3.20;;;;;;;;;;5028552;28;20666;-55
2023/08/17 06:04:33;;;;;;;4.40;3.50;;;;;;;;;;5029360;28;20434;-57
2023/08/17 06:07:00;;;;;;;4.20;3.63;;;;;;;;;;5030027;28;20844;-58
2023/08/17 06:09:28;;;;;;;4.10;3.50;;;;;;;;;;5028731;28;20476;-57
2023/08/17 06:11:55;;;;;;;4.80;3.80;;;;;;;;;;5029111;28;20580;-57
2023/08/17 06:14:23;;;;;;;7.50;4.63;;;;;;;;;;5012777;28;20494;-57
2023/08/17 06:16:51;;;;;;;6.20;4.47;;;;;;;;;;5029458;28;20533;-59
2023/08/17 06:19:19;;;;;;;5.00;4.50;;;;;;;;;;5029696;28;20438;-58
2023/08/17 06:21:46;;;;;;;7.13;4.93;;;;;;;;;;5027764;28;20888;-57
2023/08/17 06:24:13;;;;;;;4.30;3.90;;;;;;;;;;5030252;28;20489;-58
2023/08/17 06:26:41;;;;;;;4.10;3.70;;;;;;;;;;5029814;28;20447;-56
2023/08/17 06:29:08;;;;;;;5.43;3.70;;;;;;;;;;5029225;28;20858;-57
2023/08/17 06:31:35;;;;;;;3.93;3.50;;;;;;;;;;5029715;28;20521;-56
2023/08/17 06:34:04;;;;;;;5.50;3.30;;;;;;;;;;5030306;28;20484;-58
2023/08/17 06:36:32;;;;;;;4.33;3.23;;;;;;;;;;5028551;28;20438;-55
2023/08/17 06:38:59;;;;;;;4.83;3.17;;;;;;;;;;5029302;28;20439;-57
2023/08/17 06:41:27;;;;;;;4.80;3.30;;;;;;;;;;5027371;28;20582;-56
2023/08/17 06:43:54;;;;;;;8.23;3.80;;;;;;;;;;5029769;28;20949;-55
2023/08/17 06:46:21;;;;;;;5.10;3.90;;;;;;;;;;5030077;28;20478;-59
2023/08/17 06:48:48;;;;;;;4.50;3.33;;;;;;;;;;5029243;28;20457;-56
2023/08/17 06:51:17;;;;;;;4.10;3.53;;;;;;;;;;5030003;28;20462;-56
2023/08/17 06:53:45;;;;;;;5.73;3.13;;;;;;;;;;5019144;28;20501;-56
2023/08/17 06:56:12;;;;;;;3.80;3.40;;;;;;;;;;5022100;28;20470;-57
2023/08/17 06:58:39;;;;;;;6.43;3.13;;;;;;;;;;5023208;28;20483;-58
2023/08/17 07:01:07;;;;;;;4.70;3.00;;;;;;;;;;5013802;28;20586;-55
2023/08/17 07:03:34;;;;;;;4.20;3.60;;;;;;;;;;5027791;28;20520;-59
2023/08/17 07:06:01;;;;;;;4.40;3.30;;;;;;;;;;5032900;28;20787;-56
2023/08/17 07:08:30;;;;;;;3.67;3.00;;;;;;;;;;5033498;28;20442;-59
2023/08/17 07:10:57;;;;;;;7.07;4.17;;;;;;;;;;5022569;28;20550;-58
2023/08/17 07:13:24;;;;;;;5.67;4.00;;;;;;;;;;5024475;28;20470;-58
2023/08/17 07:15:52;;;;;;;4.50;3.20;;;;;;;;;;5025577;28;20505;-57
2023/08/17 07:18:19;;;;;;;4.47;3.70;;;;;;;;;;5029849;28;20867;-56
2023/08/17 07:20:46;;;;;;;5.00;3.20;;;;;;;;;;5032589;28;20466;-56
2023/08/17 07:23:14;;;;;;;4.33;3.93;;;;;;;;;;5032341;28;20907;-55
2023/08/17 07:25:42;;;;;;;4.00;3.60;;;;;;;;;;5027525;28;20490;-56
2023/08/17 07:28:09;;;;;;;5.27;3.73;;;;;;;;;;5013829;28;20616;-57
2023/08/17 07:30:37;;;;;;;3.60;3.13;;;;;;;;;;5026542;28;21020;-57
2023/08/17 07:33:04;;;;;;;3.33;3.00;;;;;;;;;;5033527;28;20533;-58
2023/08/17 07:35:31;;;;;;;4.50;3.10;;;;;;;;;;5033056;28;20945;-57
2023/08/17 07:37:58;;;;;;;3.20;2.90;;;;;;;;;;5033412;28;20532;-58
2023/08/17 07:40:26;;;;;;;4.43;3.50;;;;;;;;;;5033254;28;20511;-57
2023/08/17 07:42:54;;;;;;;4.33;3.20;;;;;;;;;;5024901;28;21095;-57
2023/08/17 07:45:21;;;;;;;5.07;3.97;;;;;;;;;;5033117;28;20936;-58
2023/08/17 07:47:49;;;;;;;4.03;3.53;;;;;;;;;;5032598;28;20558;-57
2023/08/17 07:50:16;;;;;;;4.63;3.83;;;;;;;;;;5031910;28;20941;-57
2023/08/17 07:52:43;;;;;;;5.30;3.83;;;;;;;;;;5029706;28;20556;-57
2023/08/17 07:55:11;;;;;;;4.43;3.90;;;;;;;;;;5031907;28;20521;-57
2023/08/17 07:57:38;;;;;;;3.80;3.20;;;;;;;;;;5031791;28;20450;-56
2023/08/17 08:00:08;;;;;;;4.50;3.47;;;;;;;;;;5031947;28;20458;-55
2023/08/17 08:02:35;;;;;;;4.30;3.30;;;;;;;;;;5031523;28;20474;-57
2023/08/17 08:05:02;;;;;;;3.93;3.53;;;;;;;;;;5032070;28;20523;-58
2023/08/17 08:07:29;;;;;;;3.80;3.50;;;;;;;;;;5031728;28;20796;-57
2023/08/17 08:09:57;;;;;;;4.23;3.80;;;;;;;;;;5030921;28;20465;-59
2023/08/17 08:12:24;;;;;;;5.37;4.20;;;;;;;;;;5029807;28;20464;-57
2023/08/17 08:14:51;;;;;;;4.10;3.67;;;;;;;;;;5027004;28;20938;-56
2023/08/17 08:17:20;;;;;;;4.50;4.10;;;;;;;;;;5026296;28;20446;-56
2023/08/17 08:19:47;;;;;;;4.00;3.60;;;;;;;;;;5029128;28;20927;-57
2023/08/17 08:22:14;;;;;;;5.53;4.13;;;;;;;;;;5010930;28;20557;-58
2023/08/17 08:24:41;;;;;;;4.80;4.17;;;;;;;;;;5011129;28;21029;-58
2023/08/17 08:27:09;;;;;;;4.80;4.20;;;;;;;;;;5011380;28;21004;-57
2023/08/17 08:29:36;;;;;;;4.70;4.20;;;;;;;;;;5011772;28;20466;-57
2023/08/17 08:32:03;;;;;;;5.57;4.33;;;;;;;;;;5056890;22;20490;-86
2023/08/17 08:34:32;;;;;;;4.43;4.00;;;;;;;;;;5034856;28;20461;-87
2023/08/17 08:36:59;;;;;;;5.00;4.50;;;;;;;;;;5045307;28;20737;-86
2023/08/17 08:39:27;;;;;;;5.17;4.07;;;;;;;;;;5052742;28;20441;-86
2023/08/17 08:41:54;;;;;;;4.20;3.70;;;;;;;;;;5051882;28;20977;-86
2023/08/17 08:44:22;;;;;;;4.50;3.97;;;;;;;;;;5046192;28;20496;-86
2023/08/17 08:46:50;;;;;;;5.70;5.03;;;;;;;;;;5032044;28;20882;-87
2023/08/17 08:49:21;;;;;;;4.30;3.90;;;;;;;;;;5039142;28;20446;-86
2023/08/17 08:51:50;;;;;;;6.63;4.77;;;;;;;;;;5033656;28;20746;-86
2023/08/17 08:54:20;;;;;;;5.07;4.57;;;;;;;;;;5032628;28;20786;-86
2023/08/17 08:56:48;;;;;;;4.90;4.20;;;;;;;;;;5031806;28;20521;-87
2023/08/17 08:59:16;;;;;;;4.10;3.70;;;;;;;;;;5031845;28;20505;-87
2023/08/17 09:01:43;;;;;;;4.63;4.03;;;;;;;;;;5030687;28;20474;-86
2023/08/17 09:04:11;;;;;;;4.40;4.00;;;;;;;;;;5031335;28;20596;-87
2023/08/17 09:06:39;;;;;;;5.90;3.73;;;;;;;;;;5031542;28;20512;-86
2023/08/17 09:09:09;;;;;;;5.23;4.67;;;;;;;;;;5031006;28;20581;-86
2023/08/17 09:11:37;;;;;;;4.30;3.90;;;;;;;;;;5028038;28;20455;-87
2023/08/17 09:14:07;;;;;;;4.53;3.70;;;;;;;;;;5030850;28;20500;-86
2023/08/17 09:16:35;;;;;;;4.20;3.80;;;;;;;;;;5032344;28;20549;-86
2023/08/17 09:19:02;;;;;;;5.10;4.60;;;;;;;;;;5035966;28;20450;-86
2023/08/17 09:21:32;;;;;;;7.07;4.70;;;;;;;;;;5045980;28;20433;-86
2023/08/17 09:24:00;;;;;;;4.83;4.43;;;;;;;;;;5045162;28;20442;-86
2023/08/17 09:26:32;;;;;;;4.77;3.87;;;;;;;;;;5044260;28;20457;-88
2023/08/17 09:29:01;;;;;;;4.27;3.87;;;;;;;;;;5051662;28;20441;-87
2023/08/17 09:31:33;;;;;;;4.40;4.00;;;;;;;;;;5018298;28;20458;-88
2023/08/17 09:34:00;;;;;;;5.00;4.40;;;;;;;;;;5031519;28;20452;-85
2023/08/17 09:36:27;;;;;;;6.03;4.57;;;;;;;;;;5031590;28;20553;-84
2023/08/17 09:38:56;;;;;;;5.30;4.23;;;;;;;;;;5024416;28;20952;-87
2023/08/17 09:41:23;;;;;;;3.90;3.50;;;;;;;;;;5029701;28;20943;-88
2023/08/17 09:43:52;;;;;;;6.47;4.50;;;;;;;;;;5030427;28;21058;-86
2023/08/17 09:46:19;;;;;;;4.93;4.20;;;;;;;;;;5028770;28;20463;-87
2023/08/17 09:48:47;;;;;;;5.77;4.87;;;;;;;;;;5022571;28;20464;-87
2023/08/17 09:51:16;;;;;;;4.40;3.97;;;;;;;;;;5036957;28;20442;-87
2023/08/17 09:53:43;;;;;;;5.30;4.80;;;;;;;;;;5047326;28;20481;-87
2023/08/17 09:56:12;;;;;;;4.70;4.10;;;;;;;;;;5029898;28;20903;-87
2023/08/17 09:58:40;;;;;;;5.30;4.80;;;;;;;;;;5041935;28;20532;-87
2023/08/17 10:01:09;;;;;;;5.60;4.87;;;;;;;;;;5041816;28;20803;-86
2023/08/17 10:03:37;;;;;;;5.43;4.30;;;;;;;;;;5045438;28;20509;-86
2023/08/17 10:06:06;;;;;;;4.50;4.10;;;;;;;;;;5037339;28;20481;-86
2023/08/17 10:08:35;;;;;;;4.53;4.13;;;;;;;;;;5029075;28;20458;-88
2023/08/17 10:11:04;;;;;;;4.53;4.10;;;;;;;;;;5029777;28;21022;-86
2023/08/17 10:13:36;;;;;;;8.30;4.53;;;;;;;;;;5025208;28;20451;-86
2023/08/17 10:16:08;;;;;;;5.20;4.70;;;;;;;;;;5010925;28;20487;-86
2023/08/17 10:18:40;;;;;;;5.93;4.90;;;;;;;;;;5015361;28;20884;-86
2023/08/17 10:21:09;;;;;;;5.00;4.50;;;;;;;;;;5030536;28;20481;-86
2023/08/17 10:23:36;;;;;;;4.90;4.40;;;;;;;;;;5046054;28;20474;-83
2023/08/17 10:26:04;;;;;;;5.60;4.70;;;;;;;;;;5034868;28;20458;-83
2023/08/17 10:28:32;;;;;;;6.10;5.47;;;;;;;;;;5030317;28;20442;-83
2023/08/17 10:31:00;;;;;;;5.70;4.30;;;;;;;;;;5030392;28;20493;-86
2023/08/17 10:33:28;;;;;;;4.80;4.30;;;;;;;;;;5030591;28;20442;-86
2023/08/17 10:35:57;;;;;;;5.00;4.50;;;;;;;;;;5033946;28;20545;-87
2023/08/17 10:38:24;;;;;;;4.60;3.93;;;;;;;;;;5033656;28;20496;-86
2023/08/17 10:41:06;;;;;;;6.03;4.13;;;;;;;;;;5033834;28;20473;-84
2023/08/17 10:43:34;;;;;;;6.07;4.40;;;;;;;;;;5031659;28;20478;-84
2023/08/17 10:46:16;;;;;;;6.53;4.93;;;;;;;;;;5033538;28;20465;-85
2023/08/17 10:48:45;;;;;;;5.77;4.10;;;;;;;;;;5032896;28;20462;-85
2023/08/17 10:51:14;;;;;;;5.23;4.00;;;;;;;;;;5031456;28;20442;-84
2023/08/17 10:53:43;;;;;;;4.63;4.23;;;;;;;;;;5036837;28;20495;-85
2023/08/17 10:56:13;;;;;;;5.17;4.00;;;;;;;;;;5035982;28;20486;-84
2023/08/17 10:58:41;;;;;;;5.10;4.60;;;;;;;;;;5027898;28;20948;-84
2023/08/17 11:01:08;;;;;;;4.80;4.30;;;;;;;;;;5015193;28;20453;-84
2023/08/17 11:03:36;;;;;;;5.27;4.77;;;;;;;;;;5031744;28;20487;-84
2023/08/17 11:06:17;;;;;;;4.90;3.93;;;;;;;;;;5033919;28;20465;-84
2023/08/17 11:08:55;;;;;;;4.23;3.83;;;;;;;;;;5034800;28;20961;-84
2023/08/17 11:11:23;;;;;;;4.37;3.60;;;;;;;;;;5054187;28;20458;-84
2023/08/17 11:13:51;;;;;;;3.70;3.10;;;;;;;;;;5054041;28;20441;-83
2023/08/17 11:16:19;;;;;;;4.00;3.60;;;;;;;;;;5054608;28;20545;-84
2023/08/17 11:18:46;;;;;;;5.30;3.70;;;;;;;;;;5052757;28;20447;-84
2023/08/17 11:21:15;;;;;;;4.87;3.80;;;;;;;;;;5034240;28;20450;-84
2023/08/17 11:23:44;;;;;;;5.00;3.80;;;;;;;;;;5015342;28;20494;-84
2023/08/17 11:26:11;;;;;;;3.40;3.10;;;;;;;;;;5029995;28;20484;-84
2023/08/17 11:28:40;;;;;;;4.20;3.80;;;;;;;;;;5054519;28;20468;-84
2023/08/17 11:31:09;;;;;;;3.63;3.17;;;;;;;;;;5052702;28;20868;-84
2023/08/17 11:33:37;;;;;;;3.70;3.40;;;;;;;;;;5053577;28;20433;-84
2023/08/17 11:36:05;;;;;;;4.30;3.90;;;;;;;;;;5033303;28;20883;-84
2023/08/17 11:38:33;;;;;;;4.17;3.77;;;;;;;;;;5034394;28;20481;-84
2023/08/17 11:41:02;;;;;;;4.33;3.93;;;;;;;;;;5035789;28;20478;-84
2023/08/17 11:43:30;;;;;;;4.13;3.73;;;;;;;;;;5036793;28;20474;-84
2023/08/17 11:45:58;;;;;;;4.07;3.67;;;;;;;;;;5035720;28;20467;-83
2023/08/17 11:48:25;;;;;;;3.93;3.33;;;;;;;;;;5038537;28;20466;-84
2023/08/17 11:50:53;;;;;;;4.30;3.90;;;;;;;;;;5038217;28;20953;-83
2023/08/17 11:53:21;;;;;;;3.83;3.43;;;;;;;;;;5037292;28;20811;-83
2023/08/17 11:55:48;;;;;;;5.33;4.37;;;;;;;;;;5037721;28;20446;-84
2023/08/17 11:58:17;;;;;;;5.40;4.43;;;;;;;;;;5057901;28;20532;-83
2023/08/17 12:00:45;;;;;;;5.47;4.97;;;;;;;;;;5034227;28;20533;-83
2023/08/17 12:03:15;;;;;;;6.07;5.47;;;;;;;;;;5034152;28;20504;-83
2023/08/17 12:05:43;;;;;;;5.17;4.67;;;;;;;;;;5034752;28;20541;-83
2023/08/17 12:08:10;;;;;;;7.33;4.70;;;;;;;;;;5035764;28;20473;-83
2023/08/17 12:10:38;;;;;;;5.10;4.60;;;;;;;;;;5036213;28;20880;-83
2023/08/17 12:13:06;;;;;;;5.00;4.50;;;;;;;;;;5036179;28;20442;-83
2023/08/17 12:15:35;;;;;;;5.17;4.77;;;;;;;;;;5036674;28;20439;-83
2023/08/17 12:18:03;;;;;;;5.93;4.57;;;;;;;;;;5035917;28;20448;-83
2023/08/17 12:20:31;;;;;;;8.83;4.50;;;;;;;;;;5035895;28;20454;-83
2023/08/17 12:22:59;;;;;;;6.03;4.70;;;;;;;;;;5037090;28;20532;-83
2023/08/17 12:25:27;;;;;;;5.33;4.60;;;;;;;;;;5039024;28;20822;-83
2023/08/17 12:27:54;;;;;;;6.63;4.83;;;;;;;;;;5037523;28;20505;-83
2023/08/17 12:30:28;;;;;;;5.77;4.30;;;;;;;;;;5036964;28;20878;-83
2023/08/17 12:32:57;;;;;;;4.50;4.07;;;;;;;;;;5037748;28;20435;-84
2023/08/17 12:35:24;;;;;;;4.30;3.90;;;;;;;;;;5038636;28;20473;-84
2023/08/17 12:37:52;;;;;;;4.03;3.63;;;;;;;;;;5037636;28;20477;-84
2023/08/17 12:40:19;;;;;;;5.10;4.00;;;;;;;;;;5037208;28;20477;-84
2023/08/17 12:42:46;;;;;;;5.33;4.30;;;;;;;;;;5036667;28;20470;-84
2023/08/17 12:45:14;;;;;;;5.90;4.47;;;;;;;;;;5036794;28;20470;-83
2023/08/17 12:47:41;;;;;;;4.93;4.20;;;;;;;;;;5036283;28;20464;-83
2023/08/17 12:50:10;;;;;;;4.73;3.80;;;;;;;;;;5035225;28;20496;-83
2023/08/17 12:52:37;;;;;;;4.77;4.37;;;;;;;;;;5035733;28;20461;-83
2023/08/17 12:55:05;;;;;;;5.47;4.10;;;;;;;;;;5037618;28;20492;-83
2023/08/17 12:57:32;;;;;;;6.40;3.60;;;;;;;;;;5036104;28;20458;-83
2023/08/17 12:59:59;;;;;;;5.57;4.30;;;;;;;;;;5037267;28;20442;-83
2023/08/17 13:02:27;;;;;;;4.93;4.47;;;;;;;;;;5036870;28;20473;-84
2023/08/17 13:04:54;;;;;;;4.70;3.90;;;;;;;;;;5036814;28;20998;-84
2023/08/17 13:07:23;;;;;;;4.80;3.97;;;;;;;;;;5037281;28;20489;-83
2023/08/17 13:09:50;;;;;;;4.43;4.03;;;;;;;;;;5036639;28;20442;-83
2023/08/17 13:12:17;;;;;;;3.77;3.10;;;;;;;;;;5035348;28;20869;-83
2023/08/17 13:14:44;;;;;;;4.40;3.83;;;;;;;;;;5035461;28;20919;-84
2023/08/17 13:17:14;;;;;;;4.73;3.93;;;;;;;;;;5034639;28;20886;-83
2023/08/17 13:19:41;;;;;;;4.50;2.90;;;;;;;;;;5037009;28;20446;-83
2023/08/17 13:22:08;;;;;;;3.50;2.57;;;;;;;;;;5036089;28;20473;-83
2023/08/17 13:24:37;;;;;;;3.63;3.23;;;;;;;;;;5034552;28;20473;-83
2023/08/17 13:27:05;;;;;;;5.23;4.07;;;;;;;;;;5034432;28;20520;-83
2023/08/17 13:29:32;;;;;;;5.07;3.30;;;;;;;;;;5034904;28;20502;-83
2023/08/17 13:31:59;;;;;;;3.93;3.40;;;;;;;;;;5052891;28;20457;-83
2023/08/17 13:34:26;;;;;;;4.63;2.97;;;;;;;;;;5035361;28;20438;-83
2023/08/17 13:36:54;;;;;;;6.00;3.83;;;;;;;;;;5032943;28;20494;-83
2023/08/17 13:39:21;;;;;;;3.57;2.40;;;;;;;;;;5033528;28;20442;-83
2023/08/17 13:41:50;;;;;;;3.50;2.60;;;;;;;;;;5034315;28;20442;-83
2023/08/17 13:44:17;;;;;;;4.20;3.30;;;;;;;;;;5035345;28;20559;-83
2023/08/17 13:46:44;;;;;;;3.77;2.80;;;;;;;;;;5034239;28;20493;-83
2023/08/17 13:49:11;;;;;;;4.80;2.60;;;;;;;;;;5033326;28;20477;-84
2023/08/17 13:51:38;;;;;;;3.20;2.77;;;;;;;;;;5034423;28;20496;-84
2023/08/17 13:54:06;;;;;;;3.40;3.07;;;;;;;;;;5034591;28;20458;-84
2023/08/17 13:56:33;;;;;;;3.73;3.00;;;;;;;;;;5033413;28;20465;-83
2023/08/17 13:59:02;;;;;;;3.47;2.90;;;;;;;;;;5034092;28;20458;-83
2023/08/17 14:01:30;;;;;;;3.90;3.30;;;;;;;;;;5033771;28;20533;-84
2023/08/17 14:03:57;;;;;;;4.30;3.07;;;;;;;;;;5033714;28;20513;-83
2023/08/17 14:06:24;;;;;;;3.63;2.90;;;;;;;;;;5034536;28;20519;-83
2023/08/17 14:08:52;;;;;;;4.23;2.90;;;;;;;;;;5033081;28;20500;-83
2023/08/17 14:11:19;;;;;;;3.10;2.47;;;;;;;;;;5033017;28;20760;-84
2023/08/17 14:13:46;;;;;;;4.17;3.07;;;;;;;;;;5032594;28;20880;-84
2023/08/17 14:16:15;;;;;;;4.23;2.80;;;;;;;;;;5033204;28;20462;-84
2023/08/17 14:18:42;;;;;;;4.00;2.97;;;;;;;;;;5033384;28;20462;-84
2023/08/17 14:21:09;;;;;;;3.53;2.97;;;;;;;;;;5032878;28;20505;-84
2023/08/17 14:23:36;;;;;;;4.13;2.70;;;;;;;;;;5032376;28;20502;-84
2023/08/17 14:26:04;;;;;;;3.97;2.60;;;;;;;;;;5033664;28;20445;-83
2023/08/17 14:28:31;;;;;;;4.60;2.97;;;;;;;;;;5032652;28;20868;-84
2023/08/17 14:30:58;;;;;;;2.80;2.20;;;;;;;;;;5032298;28;20900;-84
2023/08/17 14:33:27;;;;;;;4.50;3.17;;;;;;;;;;5032748;28;20434;-84
2023/08/17 14:35:54;;;;;;;5.53;3.20;;;;;;;;;;5032698;28;20987;-84
2023/08/17 14:38:21;;;;;;;4.07;2.63;;;;;;;;;;5032957;28;21038;-84
2023/08/17 14:40:49;;;;;;;3.00;2.70;;;;;;;;;;5033640;28;20469;-83
2023/08/17 14:43:17;;;;;;;4.87;2.97;;;;;;;;;;5034676;28;20434;-83
2023/08/17 14:45:44;;;;;;;3.73;2.83;;;;;;;;;;5064494;23;20511;-59